Time;durP1;ratioP1;P1;durP2;ratioP2;P2;SDS_P1;SDS_P2;PMS_P1;PMS_P2;Temp;Humidity;BMP_temperature;BMP_pressure;BME280_temperature;BME280_humidity;BME280_pressure;Samples;Min_cycle;Max_cycle;Signal;HPM_P1;HPM_P2
2022/04/12 00:00:00;;;;;;;4.85;3.35;;;;;;;;;;4999694;28;20069;-59
2022/04/12 00:02:26;;;;;;;6.40;3.40;;;;;;;;;;5004332;28;20026;-59
2022/04/12 00:04:52;;;;;;;6.03;3.40;;;;;;;;;;5001049;28;20672;-58
2022/04/12 00:07:18;;;;;;;5.40;3.28;;;;;;;;;;5005904;28;20590;-59
2022/04/12 00:09:44;;;;;;;6.95;3.42;;;;;;;;;;5003402;28;20214;-58
2022/04/12 00:12:10;;;;;;;6.75;3.20;;;;;;;;;;4984185;28;20034;-59
2022/04/12 00:14:36;;;;;;;5.25;3.20;;;;;;;;;;5000901;28;20549;-59
2022/04/12 00:19:52;;;;;;;5.78;2.95;;;;;;;;;;4982693;28;20068;-59
2022/04/12 00:22:18;;;;;;;6.40;3.55;;;;;;;;;;5003842;28;20029;-59
2022/04/12 00:24:44;;;;;;;5.20;3.17;;;;;;;;;;5003486;28;20030;-59
2022/04/12 00:27:11;;;;;;;4.72;3.25;;;;;;;;;;5000888;28;20105;-59
2022/04/12 00:29:37;;;;;;;5.60;3.75;;;;;;;;;;5002466;28;20037;-60
2022/04/12 00:32:03;;;;;;;5.15;3.15;;;;;;;;;;5003597;28;20034;-58
2022/04/12 00:34:29;;;;;;;6.18;3.28;;;;;;;;;;4999817;28;20026;-59
2022/04/12 00:36:54;;;;;;;5.55;3.38;;;;;;;;;;5004374;28;20033;-58
2022/04/12 00:39:20;;;;;;;7.60;3.80;;;;;;;;;;4995987;28;20022;-58
2022/04/12 00:41:46;;;;;;;6.25;3.10;;;;;;;;;;4996869;28;20023;-59
2022/04/12 00:44:12;;;;;;;5.53;3.72;;;;;;;;;;4999934;28;20030;-59
2022/04/12 00:46:38;;;;;;;7.25;3.90;;;;;;;;;;5003794;28;20061;-59
2022/04/12 00:49:04;;;;;;;6.82;3.50;;;;;;;;;;4997077;28;20449;-59
2022/04/12 00:51:30;;;;;;;6.22;3.47;;;;;;;;;;4997879;28;20417;-59
2022/04/12 00:53:56;;;;;;;6.68;3.33;;;;;;;;;;5003467;28;20553;-59
2022/04/12 00:56:23;;;;;;;5.63;3.15;;;;;;;;;;5004264;28;20026;-58
2022/04/12 00:58:49;;;;;;;6.25;3.58;;;;;;;;;;4986559;28;20478;-59
2022/04/12 01:01:16;;;;;;;7.00;3.20;;;;;;;;;;5005590;28;20774;-58
2022/04/12 01:03:42;;;;;;;4.47;3.30;;;;;;;;;;5003751;28;20026;-59
2022/04/12 01:06:08;;;;;;;5.35;3.80;;;;;;;;;;4999595;28;20041;-59
2022/04/12 01:08:37;;;;;;;5.43;3.53;;;;;;;;;;4997462;28;20379;-59
2022/04/12 01:11:10;;;;;;;6.20;3.72;;;;;;;;;;5000281;28;20037;-59
2022/04/12 01:13:36;;;;;;;7.55;3.80;;;;;;;;;;5003880;28;20038;-59
2022/04/12 01:16:05;;;;;;;6.63;3.60;;;;;;;;;;4997788;28;20501;-58
2022/04/12 01:18:31;;;;;;;9.20;3.88;;;;;;;;;;5004490;28;20549;-59
2022/04/12 01:20:57;;;;;;;5.25;3.70;;;;;;;;;;4995277;28;20018;-58
2022/04/12 01:23:26;;;;;;;7.03;3.45;;;;;;;;;;5002082;28;20549;-59
2022/04/12 01:25:52;;;;;;;9.30;4.15;;;;;;;;;;5001350;28;20446;-59
2022/04/12 01:28:18;;;;;;;8.43;4.57;;;;;;;;;;5004648;28;20087;-59
2022/04/12 01:30:44;;;;;;;9.40;4.65;;;;;;;;;;4999705;28;20030;-59
2022/04/12 01:33:10;;;;;;;10.27;5.43;;;;;;;;;;5002171;28;20422;-58
2022/04/12 01:35:36;;;;;;;6.85;4.70;;;;;;;;;;5002185;28;20105;-58
2022/04/12 01:38:03;;;;;;;6.65;4.25;;;;;;;;;;4997261;28;20207;-59
2022/04/12 01:40:29;;;;;;;8.65;4.55;;;;;;;;;;5000804;28;20018;-59
2022/04/12 01:42:55;;;;;;;8.02;5.00;;;;;;;;;;4998813;28;20046;-59
2022/04/12 01:45:21;;;;;;;7.10;4.45;;;;;;;;;;4982103;28;20079;-58
2022/04/12 01:47:47;;;;;;;7.38;4.28;;;;;;;;;;4999929;28;20029;-58
2022/04/12 01:50:13;;;;;;;8.70;4.57;;;;;;;;;;5001690;28;20045;-58
2022/04/12 01:52:39;;;;;;;9.40;4.50;;;;;;;;;;4999704;28;20470;-58
2022/04/12 01:55:05;;;;;;;10.07;4.63;;;;;;;;;;5000551;28;20022;-58
2022/04/12 01:57:31;;;;;;;7.47;5.03;;;;;;;;;;5001634;28;20037;-59
2022/04/12 01:59:58;;;;;;;7.65;4.60;;;;;;;;;;5000046;28;20029;-59
2022/04/12 02:02:24;;;;;;;7.28;4.13;;;;;;;;;;4997844;28;20100;-58
2022/04/12 02:04:50;;;;;;;7.38;4.20;;;;;;;;;;4999756;28;20369;-59
2022/04/12 02:07:16;;;;;;;7.50;4.43;;;;;;;;;;4995476;28;20600;-59
2022/04/12 02:09:42;;;;;;;6.45;4.32;;;;;;;;;;5004507;28;20071;-58
2022/04/12 02:12:08;;;;;;;7.13;4.38;;;;;;;;;;5003482;28;20147;-58
2022/04/12 02:14:34;;;;;;;6.22;4.38;;;;;;;;;;4998987;28;20029;-59
2022/04/12 02:17:00;;;;;;;6.63;4.63;;;;;;;;;;5003093;28;20061;-59
2022/04/12 02:19:26;;;;;;;7.32;4.30;;;;;;;;;;5003228;28;20104;-57
2022/04/12 02:21:52;;;;;;;6.82;4.78;;;;;;;;;;5004264;28;20034;-58
2022/04/12 02:24:18;;;;;;;9.95;5.00;;;;;;;;;;5006996;28;20018;-59
2022/04/12 02:26:44;;;;;;;6.82;4.30;;;;;;;;;;5004262;28;20025;-59
2022/04/12 02:29:13;;;;;;;7.53;4.85;;;;;;;;;;5005856;28;20492;-57
2022/04/12 02:31:39;;;;;;;8.40;4.80;;;;;;;;;;5002426;28;20031;-59
2022/04/12 02:34:05;;;;;;;9.30;4.65;;;;;;;;;;5004903;28;20052;-59
2022/04/12 02:36:31;;;;;;;7.22;4.43;;;;;;;;;;5000516;28;20033;-59
2022/04/12 02:38:57;;;;;;;6.82;4.30;;;;;;;;;;5006535;28;20060;-57
2022/04/12 02:41:23;;;;;;;6.53;4.18;;;;;;;;;;5006696;28;20026;-59
2022/04/12 02:43:49;;;;;;;8.23;4.20;;;;;;;;;;4989132;28;20458;-59
2022/04/12 02:46:15;;;;;;;6.97;4.10;;;;;;;;;;4985119;28;20033;-59
2022/04/12 02:48:41;;;;;;;7.93;4.22;;;;;;;;;;5003745;28;20125;-59
2022/04/12 02:51:07;;;;;;;7.38;3.97;;;;;;;;;;5001219;28;20113;-59
2022/04/12 02:53:33;;;;;;;5.95;4.32;;;;;;;;;;5000400;28;20030;-59
2022/04/12 02:55:58;;;;;;;6.40;4.05;;;;;;;;;;5004952;28;20033;-58
2022/04/12 02:58:24;;;;;;;9.40;4.15;;;;;;;;;;5004860;28;20092;-58
2022/04/12 03:00:50;;;;;;;5.20;3.70;;;;;;;;;;5004114;28;20386;-59
2022/04/12 03:03:16;;;;;;;5.78;3.85;;;;;;;;;;5002089;28;20500;-59
2022/04/12 03:05:42;;;;;;;6.57;3.88;;;;;;;;;;5003693;28;20034;-58
2022/04/12 03:08:08;;;;;;;6.72;4.07;;;;;;;;;;5003893;28;20018;-59
2022/04/12 03:10:34;;;;;;;5.85;3.95;;;;;;;;;;5005266;28;20373;-59
2022/04/12 03:13:01;;;;;;;6.70;3.80;;;;;;;;;;5002442;28;20028;-59
2022/04/12 03:15:29;;;;;;;6.75;4.28;;;;;;;;;;5006168;28;20014;-59
2022/04/12 03:17:55;;;;;;;6.80;4.32;;;;;;;;;;5005586;28;20640;-57
2022/04/12 03:20:21;;;;;;;8.27;4.22;;;;;;;;;;5006650;28;20022;-58
2022/04/12 03:22:47;;;;;;;6.60;4.47;;;;;;;;;;5000943;28;20466;-59
2022/04/12 03:25:13;;;;;;;7.25;4.60;;;;;;;;;;5004839;28;20080;-59
2022/04/12 03:27:39;;;;;;;6.85;4.50;;;;;;;;;;5001043;28;20034;-59
2022/04/12 03:30:06;;;;;;;7.70;4.70;;;;;;;;;;5003279;28;20058;-59
2022/04/12 03:32:32;;;;;;;6.47;4.32;;;;;;;;;;5003003;28;20382;-58
2022/04/12 03:34:58;;;;;;;6.63;4.43;;;;;;;;;;4998890;28;20457;-59
2022/04/12 03:37:26;;;;;;;8.38;4.57;;;;;;;;;;5001581;28;20026;-59
2022/04/12 03:39:52;;;;;;;9.38;4.63;;;;;;;;;;5000825;28;20528;-59
2022/04/12 03:42:18;;;;;;;6.25;4.32;;;;;;;;;;4999939;28;20017;-59
2022/04/12 03:44:45;;;;;;;7.60;4.50;;;;;;;;;;5004064;28;20018;-58
2022/04/12 03:47:12;;;;;;;7.28;4.90;;;;;;;;;;4986545;28;20109;-59
2022/04/12 03:49:38;;;;;;;6.97;4.60;;;;;;;;;;4996225;28;20250;-59
2022/04/12 03:52:10;;;;;;;6.93;4.30;;;;;;;;;;4999987;28;20033;-59
2022/04/12 03:54:36;;;;;;;9.57;4.90;;;;;;;;;;5003607;28;20021;-59
2022/04/12 03:57:03;;;;;;;8.25;4.57;;;;;;;;;;4998369;28;20026;-59
2022/04/12 03:59:29;;;;;;;7.22;4.65;;;;;;;;;;5002448;28;20500;-59
2022/04/12 04:01:55;;;;;;;6.03;4.15;;;;;;;;;;4998420;28;20430;-59
2022/04/12 04:04:21;;;;;;;7.63;4.88;;;;;;;;;;4999461;28;20029;-60
2022/04/12 04:06:47;;;;;;;6.43;4.50;;;;;;;;;;5005785;28;20018;-59
2022/04/12 04:09:13;;;;;;;6.50;4.72;;;;;;;;;;5006086;28;20033;-58
2022/04/12 04:11:40;;;;;;;7.72;4.28;;;;;;;;;;4995867;28;20025;-58
2022/04/12 04:14:06;;;;;;;10.15;4.95;;;;;;;;;;4997515;28;20068;-59
2022/04/12 04:16:33;;;;;;;8.50;4.50;;;;;;;;;;5001431;28;20025;-58
2022/04/12 04:18:59;;;;;;;7.30;4.65;;;;;;;;;;4997731;28;20034;-59
2022/04/12 04:21:25;;;;;;;8.35;4.93;;;;;;;;;;5001595;28;20486;-58
2022/04/12 04:23:51;;;;;;;7.63;4.60;;;;;;;;;;5002566;28;20040;-59
2022/04/12 04:26:17;;;;;;;7.00;4.75;;;;;;;;;;5003354;28;20540;-59
2022/04/12 04:28:44;;;;;;;7.15;4.65;;;;;;;;;;5000232;28;20381;-59
2022/04/12 04:31:10;;;;;;;9.88;4.70;;;;;;;;;;5000348;28;20026;-59
2022/04/12 04:33:36;;;;;;;6.55;4.30;;;;;;;;;;5001178;28;20038;-58
2022/04/12 04:36:02;;;;;;;9.95;4.40;;;;;;;;;;5005252;28;20030;-59
2022/04/12 04:38:28;;;;;;;5.65;4.38;;;;;;;;;;5002457;28;20112;-58
2022/04/12 04:40:54;;;;;;;7.95;4.43;;;;;;;;;;5000112;28;20045;-59
2022/04/12 04:43:20;;;;;;;8.07;4.68;;;;;;;;;;5003408;28;20101;-59
2022/04/12 04:45:46;;;;;;;6.15;4.13;;;;;;;;;;5005896;28;20395;-59
2022/04/12 04:48:13;;;;;;;6.18;4.53;;;;;;;;;;5000000;28;20026;-59
2022/04/12 04:50:39;;;;;;;7.50;4.50;;;;;;;;;;5000603;28;20040;-59
2022/04/12 04:53:06;;;;;;;6.80;4.47;;;;;;;;;;4997045;28;20018;-57
2022/04/12 04:55:35;;;;;;;9.75;4.50;;;;;;;;;;5003477;28;20030;-59
2022/04/12 04:58:01;;;;;;;7.30;4.47;;;;;;;;;;5002162;28;20489;-58
2022/04/12 05:00:32;;;;;;;8.85;4.75;;;;;;;;;;5002305;28;20061;-57
2022/04/12 05:02:58;;;;;;;6.78;4.18;;;;;;;;;;4999838;28;20019;-59
2022/04/12 05:05:25;;;;;;;8.52;4.40;;;;;;;;;;5004249;28;20040;-59
2022/04/12 05:07:52;;;;;;;7.82;4.20;;;;;;;;;;5000285;28;20083;-58
2022/04/12 05:10:19;;;;;;;8.70;4.70;;;;;;;;;;5001666;28;20025;-59
2022/04/12 05:12:45;;;;;;;6.72;4.25;;;;;;;;;;5001920;28;20033;-58
2022/04/12 05:15:11;;;;;;;8.75;4.70;;;;;;;;;;5001823;28;20057;-59
2022/04/12 05:17:37;;;;;;;7.32;4.68;;;;;;;;;;5004853;28;20021;-58
2022/04/12 05:20:06;;;;;;;10.27;4.20;;;;;;;;;;5002231;28;20524;-58
2022/04/12 05:22:32;;;;;;;11.75;5.03;;;;;;;;;;4998418;28;20445;-59
2022/04/12 05:24:58;;;;;;;11.30;4.88;;;;;;;;;;5000899;28;20034;-58
2022/04/12 05:27:24;;;;;;;11.45;5.22;;;;;;;;;;4998665;28;20219;-59
2022/04/12 05:29:50;;;;;;;9.32;4.68;;;;;;;;;;5003405;28;20034;-59
2022/04/12 05:32:16;;;;;;;7.50;4.78;;;;;;;;;;4999256;28;20146;-58
2022/04/12 05:34:43;;;;;;;6.78;4.60;;;;;;;;;;4994961;28;20599;-59
2022/04/12 05:37:10;;;;;;;6.68;4.03;;;;;;;;;;4999759;28;20470;-59
2022/04/12 05:39:36;;;;;;;8.18;4.68;;;;;;;;;;4996074;28;20842;-59
2022/04/12 05:42:02;;;;;;;7.53;4.50;;;;;;;;;;5000746;28;20022;-59
2022/04/12 05:44:29;;;;;;;8.02;4.35;;;;;;;;;;5003844;28;20044;-59
2022/04/12 05:46:55;;;;;;;8.85;4.78;;;;;;;;;;5004358;28;20440;-57
2022/04/12 05:49:22;;;;;;;13.63;4.72;;;;;;;;;;5004957;28;20053;-59
2022/04/12 05:51:48;;;;;;;9.32;4.28;;;;;;;;;;5007396;28;20180;-59
2022/04/12 05:54:14;;;;;;;8.80;4.43;;;;;;;;;;5009022;28;20681;-59
2022/04/12 05:56:40;;;;;;;5.53;3.95;;;;;;;;;;5002392;28;20096;-59
2022/04/12 05:59:06;;;;;;;6.05;3.85;;;;;;;;;;5005948;28;20347;-59
2022/04/12 06:01:32;;;;;;;7.13;4.00;;;;;;;;;;5002222;28;20076;-59
2022/04/12 06:03:58;;;;;;;7.30;4.20;;;;;;;;;;5006849;28;20042;-59
2022/04/12 06:06:24;;;;;;;9.65;4.10;;;;;;;;;;4991633;28;20025;-60
2022/04/12 06:08:50;;;;;;;8.07;4.10;;;;;;;;;;5004764;28;20026;-59
2022/04/12 06:11:16;;;;;;;5.85;4.10;;;;;;;;;;5000489;28;20033;-60
2022/04/12 06:13:42;;;;;;;8.55;4.13;;;;;;;;;;4999737;28;20030;-59
2022/04/12 06:16:08;;;;;;;9.95;4.05;;;;;;;;;;5004158;28;20092;-59
2022/04/12 06:18:34;;;;;;;6.45;3.83;;;;;;;;;;5005969;28;20046;-60
2022/04/12 06:20:59;;;;;;;6.20;3.60;;;;;;;;;;5006179;28;20029;-60
2022/04/12 06:23:25;;;;;;;6.18;3.53;;;;;;;;;;5005133;28;20050;-60
2022/04/12 06:25:51;;;;;;;7.40;4.03;;;;;;;;;;5003581;28;20092;-60
2022/04/12 06:28:18;;;;;;;10.05;4.35;;;;;;;;;;4999793;28;20533;-60
2022/04/12 06:30:44;;;;;;;6.82;4.00;;;;;;;;;;5000033;28;20473;-60
2022/04/12 06:33:10;;;;;;;7.28;3.88;;;;;;;;;;5006028;28;20485;-60
2022/04/12 06:35:36;;;;;;;6.30;4.00;;;;;;;;;;4989217;28;20030;-60
2022/04/12 06:38:03;;;;;;;6.63;4.28;;;;;;;;;;4996473;28;20422;-60
2022/04/12 06:40:29;;;;;;;7.68;4.30;;;;;;;;;;5003671;28;20097;-60
2022/04/12 06:42:55;;;;;;;7.63;3.90;;;;;;;;;;4987553;28;20449;-60
2022/04/12 06:45:21;;;;;;;11.70;5.00;;;;;;;;;;5005411;28;20033;-59
2022/04/12 06:47:58;;;;;;;6.05;4.07;;;;;;;;;;5005581;28;20026;-60
2022/04/12 06:50:25;;;;;;;9.40;4.60;;;;;;;;;;4998862;28;20158;-60
2022/04/12 06:52:51;;;;;;;6.88;3.92;;;;;;;;;;5002609;28;20026;-60
2022/04/12 06:55:17;;;;;;;7.00;4.40;;;;;;;;;;4984734;28;20023;-61
2022/04/12 06:57:43;;;;;;;8.38;4.43;;;;;;;;;;5000995;28;20040;-59
2022/04/12 07:00:10;;;;;;;7.28;4.43;;;;;;;;;;5001812;28;20022;-60
2022/04/12 07:02:37;;;;;;;7.85;4.53;;;;;;;;;;5005960;28;20025;-60
2022/04/12 07:05:04;;;;;;;8.02;4.03;;;;;;;;;;5005366;28;20599;-60
2022/04/12 07:07:30;;;;;;;7.68;4.13;;;;;;;;;;4999227;28;20401;-60
2022/04/12 07:09:56;;;;;;;7.25;4.13;;;;;;;;;;5003641;28;20121;-59
2022/04/12 07:12:23;;;;;;;7.35;4.88;;;;;;;;;;4997507;28;20389;-60
2022/04/12 07:14:49;;;;;;;7.78;4.55;;;;;;;;;;5002175;28;20466;-60
2022/04/12 07:17:15;;;;;;;7.07;4.10;;;;;;;;;;4998864;28;20037;-60
2022/04/12 07:19:41;;;;;;;7.65;4.38;;;;;;;;;;5003010;28;20036;-60
2022/04/12 07:22:09;;;;;;;7.20;4.00;;;;;;;;;;4997536;28;20041;-60
2022/04/12 07:24:35;;;;;;;6.78;4.13;;;;;;;;;;5005201;28;20044;-60
2022/04/12 07:27:01;;;;;;;8.45;4.05;;;;;;;;;;4996575;28;20429;-60
2022/04/12 07:29:27;;;;;;;6.32;4.25;;;;;;;;;;5004024;28;20462;-60
2022/04/12 07:31:53;;;;;;;12.00;4.22;;;;;;;;;;5001862;28;20445;-61
2022/04/12 07:34:19;;;;;;;7.35;4.00;;;;;;;;;;5006458;28;20021;-60
2022/04/12 07:36:47;;;;;;;6.90;3.67;;;;;;;;;;5005977;28;20021;-60
2022/04/12 07:39:16;;;;;;;10.38;3.72;;;;;;;;;;5004911;28;20052;-60
2022/04/12 07:41:42;;;;;;;7.65;3.90;;;;;;;;;;4999625;28;20501;-60
2022/04/12 07:44:08;;;;;;;9.23;3.85;;;;;;;;;;5003782;28;20034;-60
2022/04/12 07:46:34;;;;;;;6.18;3.90;;;;;;;;;;5001478;28;20033;-61
2022/04/12 07:49:00;;;;;;;9.05;3.95;;;;;;;;;;5003752;28;20038;-60
2022/04/12 07:51:26;;;;;;;7.22;3.50;;;;;;;;;;5001811;28;20367;-60
2022/04/12 07:53:52;;;;;;;7.15;4.00;;;;;;;;;;5002735;28;20945;-60
2022/04/12 07:56:18;;;;;;;6.88;3.60;;;;;;;;;;5001200;28;20045;-60
2022/04/12 07:58:44;;;;;;;7.90;3.88;;;;;;;;;;5003411;28;20046;-60
2022/04/12 08:01:11;;;;;;;7.72;4.20;;;;;;;;;;5002894;28;20541;-60
2022/04/12 08:03:37;;;;;;;6.22;3.10;;;;;;;;;;5000696;28;20022;-60
2022/04/12 08:06:03;;;;;;;9.15;3.83;;;;;;;;;;5002077;28;20033;-60
2022/04/12 08:08:29;;;;;;;7.13;3.92;;;;;;;;;;4998080;28;20064;-60
2022/04/12 08:10:55;;;;;;;6.28;4.18;;;;;;;;;;4983393;28;20022;-60
2022/04/12 08:13:21;;;;;;;8.20;3.90;;;;;;;;;;4999686;28;20083;-60
2022/04/12 08:15:47;;;;;;;6.07;3.63;;;;;;;;;;4999112;28;20021;-60
2022/04/12 08:18:13;;;;;;;8.38;4.15;;;;;;;;;;4988394;28;20089;-60
2022/04/12 08:20:39;;;;;;;5.80;3.53;;;;;;;;;;5000187;28;20460;-60
2022/04/12 08:23:05;;;;;;;9.10;4.05;;;;;;;;;;4996747;28;20041;-60
2022/04/12 08:25:31;;;;;;;7.18;4.07;;;;;;;;;;5001819;28;20034;-60
2022/04/12 08:27:57;;;;;;;6.72;3.80;;;;;;;;;;4998484;28;20628;-59
2022/04/12 08:30:23;;;;;;;6.13;3.53;;;;;;;;;;5000833;28;20118;-60
2022/04/12 08:32:49;;;;;;;9.98;3.65;;;;;;;;;;5004781;28;20029;-60
2022/04/12 08:35:15;;;;;;;7.13;3.55;;;;;;;;;;5005099;28;20465;-60
2022/04/12 08:37:43;;;;;;;6.75;3.40;;;;;;;;;;5000565;28;20026;-60
2022/04/12 08:40:10;;;;;;;7.90;3.47;;;;;;;;;;5002621;28;20025;-60
2022/04/12 08:42:36;;;;;;;6.72;3.78;;;;;;;;;;5003078;28;20111;-60
2022/04/12 08:45:03;;;;;;;13.27;3.90;;;;;;;;;;5001566;28;20028;-60
2022/04/12 08:47:32;;;;;;;6.43;3.60;;;;;;;;;;4998659;28;20430;-60
2022/04/12 08:50:00;;;;;;;6.38;3.92;;;;;;;;;;5002033;28;20034;-60
2022/04/12 08:52:26;;;;;;;7.25;3.30;;;;;;;;;;5001320;28;20030;-60
2022/04/12 08:54:52;;;;;;;6.13;3.40;;;;;;;;;;5000408;28;20029;-60
2022/04/12 08:57:18;;;;;;;6.13;3.03;;;;;;;;;;5000268;28;20645;-58
2022/04/12 08:59:46;;;;;;;6.28;3.38;;;;;;;;;;5005876;28;20037;-60
2022/04/12 09:02:12;;;;;;;6.90;3.45;;;;;;;;;;5003257;28;20452;-60
2022/04/12 09:04:39;;;;;;;6.05;3.22;;;;;;;;;;5000293;28;20022;-60
2022/04/12 09:07:09;;;;;;;8.63;3.33;;;;;;;;;;4984955;28;20034;-60
2022/04/12 09:09:35;;;;;;;10.77;3.83;;;;;;;;;;5004012;28;20107;-60
2022/04/12 09:12:03;;;;;;;6.50;2.95;;;;;;;;;;5003147;28;20033;-59
2022/04/12 09:14:44;;;;;;;6.40;2.78;;;;;;;;;;5003823;28;20025;-60
2022/04/12 09:17:12;;;;;;;7.43;2.90;;;;;;;;;;4998756;28;20033;-60
2022/04/12 09:19:38;;;;;;;5.88;3.00;;;;;;;;;;5001150;28;20029;-60
2022/04/12 09:22:09;;;;;;;6.20;2.80;;;;;;;;;;5001310;28;20053;-60
2022/04/12 09:24:37;;;;;;;6.93;2.95;;;;;;;;;;4999957;28;20029;-60
2022/04/12 09:27:03;;;;;;;7.13;3.17;;;;;;;;;;5001440;28;20074;-60
2022/04/12 09:29:30;;;;;;;8.15;3.22;;;;;;;;;;5002410;28;20022;-60
2022/04/12 09:31:58;;;;;;;6.20;2.92;;;;;;;;;;5002408;28;20052;-59
2022/04/12 09:34:25;;;;;;;7.60;3.50;;;;;;;;;;5000828;28;20033;-60
2022/04/12 09:36:51;;;;;;;6.82;2.80;;;;;;;;;;5000088;28;20056;-59
2022/04/12 09:39:20;;;;;;;7.30;3.28;;;;;;;;;;4999425;28;20045;-59
2022/04/12 09:41:49;;;;;;;7.20;2.90;;;;;;;;;;4996612;28;20100;-60
2022/04/12 09:44:19;;;;;;;9.60;3.05;;;;;;;;;;5002367;28;20025;-59
2022/04/12 09:46:45;;;;;;;6.95;2.80;;;;;;;;;;5001969;28;20026;-59
2022/04/12 09:49:11;;;;;;;8.75;2.70;;;;;;;;;;5001874;28;20080;-60
2022/04/12 09:51:38;;;;;;;8.93;2.80;;;;;;;;;;4999223;28;20025;-56
2022/04/12 09:54:06;;;;;;;8.25;2.85;;;;;;;;;;4999963;28;20036;-60
2022/04/12 09:56:33;;;;;;;9.32;3.00;;;;;;;;;;5000491;28;20512;-60
2022/04/12 09:59:06;;;;;;;6.75;3.33;;;;;;;;;;5000189;28;20018;-60
2022/04/12 10:01:39;;;;;;;12.05;3.63;;;;;;;;;;5002962;28;20104;-60
2022/04/12 10:04:05;;;;;;;12.88;7.25;;;;;;;;;;5001762;28;20065;-60
2022/04/12 10:06:31;;;;;;;5.82;2.58;;;;;;;;;;4999986;28;20121;-60
2022/04/12 10:08:59;;;;;;;6.18;2.75;;;;;;;;;;5002865;28;20117;-60
2022/04/12 10:11:26;;;;;;;6.47;2.83;;;;;;;;;;5001730;28;20022;-59
2022/04/12 10:13:52;;;;;;;6.13;2.78;;;;;;;;;;5000511;28;20034;-60
2022/04/12 10:16:20;;;;;;;5.25;2.78;;;;;;;;;;5003560;28;20036;-60
2022/04/12 10:18:46;;;;;;;7.43;2.75;;;;;;;;;;5001184;28;20026;-60
2022/04/12 10:21:12;;;;;;;5.68;3.25;;;;;;;;;;5002080;28;20541;-59
2022/04/12 10:23:43;;;;;;;6.30;2.67;;;;;;;;;;4999650;28;20097;-60
2022/04/12 10:26:10;;;;;;;5.32;2.25;;;;;;;;;;5000098;28;20405;-60
2022/04/12 10:28:36;;;;;;;8.95;3.00;;;;;;;;;;5001227;28;20029;-60
2022/04/12 10:31:24;;;;;;;10.32;2.80;;;;;;;;;;5001114;28;20034;-60
2022/04/12 10:34:11;;;;;;;4.80;2.20;;;;;;;;;;5005973;28;21008;-60
2022/04/12 10:36:56;;;;;;;5.85;2.45;;;;;;;;;;5004980;28;20469;-60
2022/04/12 10:39:26;;;;;;;4.85;2.47;;;;;;;;;;5004680;28;20029;-60
2022/04/12 10:41:55;;;;;;;8.73;2.85;;;;;;;;;;5005324;28;20034;-60
2022/04/12 10:44:21;;;;;;;8.85;2.92;;;;;;;;;;5003470;28;20290;-58
2022/04/12 10:46:47;;;;;;;5.43;2.40;;;;;;;;;;5004771;28;20092;-61
2022/04/12 10:49:13;;;;;;;3.95;2.72;;;;;;;;;;5002253;28;20116;-61
2022/04/12 10:51:40;;;;;;;4.85;2.70;;;;;;;;;;5004067;28;20021;-61
2022/04/12 10:54:07;;;;;;;4.97;2.33;;;;;;;;;;4985493;28;20401;-61
2022/04/12 10:56:33;;;;;;;5.50;2.58;;;;;;;;;;5003121;28;20029;-61
2022/04/12 10:58:59;;;;;;;5.78;2.47;;;;;;;;;;5003204;28;20014;-60
2022/04/12 11:01:30;;;;;;;6.07;2.10;;;;;;;;;;5003387;28;20026;-61
2022/04/12 11:03:56;;;;;;;4.07;1.88;;;;;;;;;;5003886;28;20030;-62
2022/04/12 11:06:32;;;;;;;5.43;2.50;;;;;;;;;;5005835;28;20481;-61
2022/04/12 11:09:10;;;;;;;7.45;2.20;;;;;;;;;;4985767;28;20151;-61
2022/04/12 11:11:44;;;;;;;9.35;2.40;;;;;;;;;;5002823;28;20735;-61
2022/04/12 11:14:25;;;;;;;3.58;2.03;;;;;;;;;;5001509;28;20026;-61
2022/04/12 11:16:54;;;;;;;6.00;2.25;;;;;;;;;;5000351;28;20152;-61
2022/04/12 11:19:21;;;;;;;3.80;2.08;;;;;;;;;;5002934;28;20458;-61
2022/04/12 11:21:55;;;;;;;6.45;2.63;;;;;;;;;;5003014;28;20099;-61
2022/04/12 11:24:21;;;;;;;4.22;2.15;;;;;;;;;;5005146;28;20014;-61
2022/04/12 11:27:18;;;;;;;5.70;2.28;;;;;;;;;;5002491;28;20457;-61
2022/04/12 11:29:44;;;;;;;7.95;2.55;;;;;;;;;;4985892;28;20046;-61
2022/04/12 11:32:11;;;;;;;6.90;2.60;;;;;;;;;;4999045;28;20036;-61
2022/04/12 11:34:38;;;;;;;6.05;2.20;;;;;;;;;;5004829;28;20036;-62
2022/04/12 11:37:07;;;;;;;5.53;2.35;;;;;;;;;;4999536;28;20032;-62
2022/04/12 11:39:37;;;;;;;6.60;2.28;;;;;;;;;;5003074;28;20017;-62
2022/04/12 11:42:04;;;;;;;3.72;2.20;;;;;;;;;;5000428;28;20040;-62
2022/04/12 11:44:31;;;;;;;4.38;2.28;;;;;;;;;;5001918;28;20551;-61
2022/04/12 11:47:03;;;;;;;9.23;2.30;;;;;;;;;;5005183;28;20033;-61
2022/04/12 11:49:30;;;;;;;5.25;2.20;;;;;;;;;;5004101;28;20037;-61
2022/04/12 11:51:58;;;;;;;4.68;2.10;;;;;;;;;;5002661;28;20034;-62
2022/04/12 11:54:25;;;;;;;4.10;2.17;;;;;;;;;;4999560;28;20528;-62
2022/04/12 11:57:06;;;;;;;5.07;2.47;;;;;;;;;;4997896;28;20027;-61
2022/04/12 11:59:36;;;;;;;8.63;2.58;;;;;;;;;;5002386;28;20166;-61
2022/04/12 12:02:04;;;;;;;4.05;2.25;;;;;;;;;;5001438;28;20034;-61
2022/04/12 12:04:31;;;;;;;4.75;2.55;;;;;;;;;;4987116;28;20022;-61
2022/04/12 12:06:59;;;;;;;5.85;2.42;;;;;;;;;;5002895;28;20040;-61
2022/04/12 12:09:25;;;;;;;6.95;2.83;;;;;;;;;;4984560;28;20030;-61
2022/04/12 12:11:51;;;;;;;5.53;2.28;;;;;;;;;;5001662;28;20034;-62
2022/04/12 12:14:19;;;;;;;4.65;2.03;;;;;;;;;;4983775;28;20037;-61
2022/04/12 12:16:45;;;;;;;7.15;2.70;;;;;;;;;;5002326;28;20038;-61
2022/04/12 12:19:14;;;;;;;4.65;2.40;;;;;;;;;;4986633;28;20472;-61
2022/04/12 12:21:44;;;;;;;4.85;2.40;;;;;;;;;;4984574;28;20026;-61
2022/04/12 12:24:10;;;;;;;5.45;2.22;;;;;;;;;;4999216;28;20030;-61
2022/04/12 12:26:36;;;;;;;3.80;1.90;;;;;;;;;;4999756;28;20153;-61
2022/04/12 12:29:02;;;;;;;6.13;2.30;;;;;;;;;;4998732;28;20102;-61
2022/04/12 12:31:28;;;;;;;6.15;1.90;;;;;;;;;;5002488;28;20453;-61
2022/04/12 12:33:54;;;;;;;6.25;1.80;;;;;;;;;;5000385;28;20064;-61
2022/04/12 12:36:21;;;;;;;6.53;2.03;;;;;;;;;;5003614;28;20096;-60
2022/04/12 12:38:48;;;;;;;5.22;1.83;;;;;;;;;;5002885;28;20153;-61
2022/04/12 12:41:31;;;;;;;3.53;1.70;;;;;;;;;;5004446;28;20026;-61
2022/04/12 12:43:58;;;;;;;3.53;1.53;;;;;;;;;;5001678;28;20126;-61
2022/04/12 12:46:24;;;;;;;2.65;1.60;;;;;;;;;;4999581;28;20034;-61
2022/04/12 12:49:05;;;;;;;3.20;1.58;;;;;;;;;;5002576;28;20541;-60
2022/04/12 12:51:31;;;;;;;2.88;1.50;;;;;;;;;;5001293;28;20021;-61
2022/04/12 12:54:04;;;;;;;6.68;1.63;;;;;;;;;;4999491;28;20445;-61
2022/04/12 12:56:33;;;;;;;2.40;1.70;;;;;;;;;;4997967;28;20026;-61
2022/04/12 12:59:18;;;;;;;3.00;1.50;;;;;;;;;;5001763;28;20477;-61
2022/04/12 13:01:45;;;;;;;3.10;1.40;;;;;;;;;;4993573;28;20022;-61
2022/04/12 13:04:20;;;;;;;2.50;1.40;;;;;;;;;;4992447;28;20030;-61
2022/04/12 13:06:47;;;;;;;2.47;1.52;;;;;;;;;;5002063;28;20057;-60
2022/04/12 13:09:13;;;;;;;4.95;1.50;;;;;;;;;;5004370;28;20557;-61
2022/04/12 13:11:40;;;;;;;4.15;1.60;;;;;;;;;;5000101;28;20030;-61
2022/04/12 13:14:06;;;;;;;4.15;1.38;;;;;;;;;;5001517;28;20061;-61
2022/04/12 13:16:32;;;;;;;5.10;2.13;;;;;;;;;;4999848;28;20034;-60
2022/04/12 13:19:04;;;;;;;14.15;5.10;;;;;;;;;;5002313;28;20026;-61
2022/04/12 13:21:30;;;;;;;2.95;1.50;;;;;;;;;;5001010;28;20025;-61
2022/04/12 13:23:56;;;;;;;4.65;1.58;;;;;;;;;;5002947;28;20030;-61
2022/04/12 13:26:22;;;;;;;4.30;1.60;;;;;;;;;;5003179;28;20504;-60
2022/04/12 13:28:48;;;;;;;3.42;1.50;;;;;;;;;;4999347;28;20143;-60
2022/04/12 13:31:14;;;;;;;7.57;1.77;;;;;;;;;;5001866;28;20424;-60
2022/04/12 13:33:40;;;;;;;2.50;1.58;;;;;;;;;;5002887;28;20034;-60
2022/04/12 13:36:06;;;;;;;4.95;1.50;;;;;;;;;;4997826;28;20230;-60
2022/04/12 13:38:32;;;;;;;2.83;1.38;;;;;;;;;;4998300;28;20502;-60
2022/04/12 13:40:58;;;;;;;4.68;1.50;;;;;;;;;;5002019;28;20359;-60
2022/04/12 13:43:24;;;;;;;4.65;1.52;;;;;;;;;;5002449;28;20021;-61
2022/04/12 13:45:52;;;;;;;6.32;2.00;;;;;;;;;;4999239;28;20030;-61
2022/04/12 13:48:19;;;;;;;5.80;1.30;;;;;;;;;;4997725;28;20022;-60
2022/04/12 13:50:44;;;;;;;2.88;1.45;;;;;;;;;;5001617;28;20657;-61
2022/04/12 13:53:11;;;;;;;3.03;1.48;;;;;;;;;;4999824;28;20023;-60
2022/04/12 13:55:37;;;;;;;8.52;2.60;;;;;;;;;;4996741;28;20029;-60
2022/04/12 13:58:03;;;;;;;4.28;1.50;;;;;;;;;;5000017;28;20041;-61
2022/04/12 14:00:29;;;;;;;6.72;1.20;;;;;;;;;;5001632;28;20508;-60
2022/04/12 14:02:55;;;;;;;4.68;1.55;;;;;;;;;;5000921;28;20040;-61
2022/04/12 14:05:23;;;;;;;2.72;1.20;;;;;;;;;;5001190;28;20026;-61
2022/04/12 14:07:49;;;;;;;5.15;1.40;;;;;;;;;;5006023;28;20029;-61
2022/04/12 14:10:15;;;;;;;4.18;1.48;;;;;;;;;;5000501;28;20018;-61
2022/04/12 14:12:41;;;;;;;4.65;1.60;;;;;;;;;;5002778;28;20146;-60
2022/04/12 14:15:08;;;;;;;4.47;1.65;;;;;;;;;;5001801;28;20037;-61
2022/04/12 14:17:34;;;;;;;2.20;1.10;;;;;;;;;;5006201;28;20496;-61
2022/04/12 14:20:00;;;;;;;5.18;1.58;;;;;;;;;;5003172;28;20454;-61
2022/04/12 14:22:26;;;;;;;7.28;1.55;;;;;;;;;;4989508;28;20018;-61
2022/04/12 14:26:51;;;;;;;10.10;2.13;;;;;;;;;;5045485;28;21138;-59
2022/04/12 14:29:17;;;;;;;4.80;1.70;;;;;;;;;;5052573;28;20013;-59
2022/04/12 14:31:43;;;;;;;8.07;1.63;;;;;;;;;;5046642;28;20498;-59
2022/04/12 14:34:09;;;;;;;3.83;1.38;;;;;;;;;;5046067;28;20026;-59
2022/04/12 14:36:35;;;;;;;3.50;1.40;;;;;;;;;;5047634;28;20049;-60
2022/04/12 14:39:01;;;;;;;4.32;1.15;;;;;;;;;;5046268;28;20025;-60
2022/04/12 14:41:27;;;;;;;3.85;1.40;;;;;;;;;;5065462;28;20081;-59
2022/04/12 14:43:53;;;;;;;2.95;1.13;;;;;;;;;;5044764;28;20029;-59
2022/04/12 14:46:19;;;;;;;3.53;1.60;;;;;;;;;;5043269;28;20405;-59